Time;durP1;ratioP1;P1;durP2;ratioP2;P2;SDS_P1;SDS_P2;PMS_P1;PMS_P2;Temp;Humidity;BMP_temperature;BMP_pressure;BME280_temperature;BME280_humidity;BME280_pressure;Samples;Min_cycle;Max_cycle;Signal;HPM_P1;HPM_P2
2023/08/26 02:28:13;;;;;;;2.83;2.67;;;25.10;93.80;;;;;;6230767;23;20377;-96
2023/08/26 02:47:51;;;;;;;2.33;2.13;;;25.00;93.80;;;;;;6229969;23;20370;-96
2023/08/26 04:59:51;;;;;;;1.60;1.50;;;25.00;92.30;;;;;;6208440;23;20468;-96
2023/08/26 05:27:07;;;;;;;1.30;1.20;;;24.90;92.20;;;;;;5888301;24;20424;-96
2023/08/26 05:38:31;;;;;;;2.10;1.87;;;24.90;92.10;;;;;;6144838;23;20396;-96
2023/08/26 05:44:00;;;;;;;1.53;1.43;;;24.80;91.90;;;;;;6168022;23;20399;-96
2023/08/26 05:52:37;;;;;;;1.40;1.30;;;24.90;91.90;;;;;;6171868;23;20451;-96
2023/08/26 06:00:55;;;;;;;2.13;1.40;;;24.90;91.90;;;;;;6161207;23;20478;-96
2023/08/26 06:03:29;;;;;;;1.43;1.30;;;24.80;91.90;;;;;;6163446;23;20388;-96
2023/08/26 06:06:03;;;;;;;1.90;1.50;;;24.90;91.90;;;;;;6165238;23;20499;-96
2023/08/26 06:08:31;;;;;;;1.57;1.47;;;24.90;91.90;;;;;;6169772;23;20404;-96
2023/08/26 07:24:52;;;;;;;1.43;1.33;;;24.90;92.00;;;;;;6251678;23;20502;-96
2023/08/26 07:27:23;;;;;;;1.43;1.27;;;24.90;92.10;;;;;;6245103;22;20452;-96
2023/08/26 07:29:55;;;;;;;1.50;1.40;;;25.00;92.10;;;;;;6228424;23;20496;-96
2023/08/26 07:45:49;;;;;;;2.03;1.20;;;25.00;91.90;;;;;;6227976;22;20532;-96
2023/08/26 07:49:06;;;;;;;1.43;1.33;;;25.00;91.90;;;;;;6232424;23;20406;-96
2023/08/26 07:51:34;;;;;;;1.30;1.20;;;24.90;91.80;;;;;;6218659;23;20452;-95
2023/08/26 07:54:01;;;;;;;1.47;1.20;;;25.00;91.90;;;;;;6218557;23;20453;-94
2023/08/26 07:56:28;;;;;;;1.33;1.23;;;25.00;91.80;;;;;;6219834;23;20417;-92
2023/08/26 08:02:45;;;;;;;1.90;1.20;;;25.10;91.90;;;;;;6222872;22;20414;-91
2023/08/26 08:05:18;;;;;;;2.13;1.57;;;25.00;89.30;;;;;;6227529;22;20430;-92
2023/08/26 10:49:23;;;;;;;2.33;1.53;;;24.80;89.10;;;;;;6220435;22;20452;-96
2023/08/26 10:55:22;;;;;;;1.80;1.40;;;24.90;89.50;;;;;;6188485;22;20488;-96
2023/08/26 10:58:41;;;;;;;1.40;1.30;;;24.90;89.50;;;;;;6227840;23;20429;-96
2023/08/26 11:01:13;;;;;;;2.30;1.40;;;25.00;89.50;;;;;;6219934;23;20386;-96
2023/08/26 11:03:46;;;;;;;1.43;1.10;;;25.00;89.60;;;;;;6224334;23;20406;-96
2023/08/26 11:06:33;;;;;;;1.97;1.10;;;24.90;89.50;;;;;;6225566;23;20456;-96
2023/08/26 11:09:08;;;;;;;2.33;1.10;;;24.90;89.40;;;;;;6224069;23;20761;-96
2023/08/26 11:11:44;;;;;;;2.43;1.00;;;25.00;89.50;;;;;;6225006;23;20445;-96
2023/08/26 11:14:19;;;;;;;1.83;1.20;;;25.00;89.70;;;;;;6225734;23;20413;-96
2023/08/26 11:17:04;;;;;;;1.60;1.30;;;25.00;89.60;;;;;;6223888;23;20398;-96
2023/08/26 11:19:45;;;;;;;2.50;1.37;;;24.90;89.50;;;;;;6225506;23;20394;-96
2023/08/26 11:29:11;;;;;;;5.23;1.57;;;25.00;89.80;;;;;;6169465;23;20464;-96
2023/08/26 11:32:27;;;;;;;1.30;1.20;;;24.90;89.80;;;;;;6169172;23;20440;-96
2023/08/26 11:35:20;;;;;;;1.50;1.40;;;25.00;89.80;;;;;;6169535;23;20877;-96
2023/08/26 12:18:29;;;;;;;1.60;1.00;;;25.00;90.10;;;;;;6224869;23;20361;-96
2023/08/26 12:30:27;;;;;;;;;;;;;;;;;;;;;
2023/08/26 12:55:54;;;;;;;1.20;1.00;;;24.90;90.20;;;;;;6163360;23;20451;-96
2023/08/26 13:22:13;;;;;;;1.20;0.80;;;25.00;90.30;;;;;;6132461;23;20412;-96
2023/08/26 13:28:26;;;;;;;1.20;0.90;;;25.00;90.40;;;;;;6135827;23;20872;-96
2023/08/26 13:31:13;;;;;;;1.10;0.90;;;25.00;90.20;;;;;;6133587;23;20436;-96
2023/08/26 13:33:47;;;;;;;1.20;0.90;;;25.00;90.20;;;;;;6134886;23;20444;-96
2023/08/26 13:36:37;;;;;;;1.30;1.00;;;25.10;90.30;;;;;;6133749;23;20409;-96
2023/08/26 13:42:23;;;;;;;2.07;1.30;;;25.00;90.30;;;;;;6130416;23;20495;-96
2023/08/26 13:50:09;;;;;;;1.10;0.90;;;25.00;90.30;;;;;;6201276;23;20449;-94
2023/08/26 13:52:36;;;;;;;3.83;1.10;;;25.00;90.70;;;;;;6216432;23;20478;-94
2023/08/26 13:55:06;;;;;;;5.53;1.30;;;25.00;90.40;;;;;;6216274;23;20488;-94
2023/08/26 13:57:34;;;;;;;2.70;1.00;;;25.00;90.40;;;;;;6216752;23;20382;-94
2023/08/26 14:00:01;;;;;;;4.87;1.63;;;25.00;90.40;;;;;;6216543;23;20729;-93
2023/08/26 14:02:28;;;;;;;2.10;1.30;;;25.00;90.40;;;;;;6216527;23;20489;-95
2023/08/26 14:08:17;;;;;;;1.40;0.90;;;25.00;90.30;;;;;;6153094;22;20452;-93
2023/08/26 14:13:38;;;;;;;1.60;1.10;;;25.00;90.30;;;;;;6156525;23;20815;-94
2023/08/26 14:16:05;;;;;;;1.23;1.07;;;25.00;90.40;;;;;;6156467;23;20470;-94
2023/08/26 14:18:32;;;;;;;2.27;1.00;;;25.00;90.50;;;;;;6156134;23;20428;-93
2023/08/26 14:21:00;;;;;;;1.90;1.10;;;25.00;90.60;;;;;;6156144;23;20496;-92
2023/08/26 14:23:27;;;;;;;1.80;1.00;;;25.00;90.40;;;;;;6156115;23;20712;-93
2023/08/26 14:25:55;;;;;;;1.20;1.00;;;25.00;90.40;;;;;;6126286;23;20405;-93
2023/08/26 14:28:22;;;;;;;2.17;1.27;;;25.00;90.40;;;;;;6126860;23;20404;-93
2023/08/26 14:30:53;;;;;;;2.50;1.00;;;25.00;90.30;;;;;;6126828;23;20460;-93
2023/08/26 14:33:20;;;;;;;1.20;0.90;;;25.00;90.30;;;;;;6127060;23;20804;-94
2023/08/26 14:35:52;;;;;;;2.57;1.00;;;25.00;90.20;;;;;;6126495;23;20508;-94
2023/08/26 14:38:19;;;;;;;1.30;1.17;;;25.00;90.30;;;;;;6126504;23;20443;-95
2023/08/26 14:40:47;;;;;;;3.93;1.10;;;25.00;90.20;;;;;;6126509;23;20408;-93
2023/08/26 14:43:15;;;;;;;1.10;0.90;;;25.00;90.20;;;;;;6126505;23;20730;-93
2023/08/26 14:45:42;;;;;;;5.10;1.20;;;25.00;90.20;;;;;;6126883;23;20405;-94
2023/08/26 14:48:10;;;;;;;1.40;0.97;;;25.00;90.20;;;;;;6127008;23;20417;-94
2023/08/26 14:50:37;;;;;;;5.13;1.30;;;25.00;90.20;;;;;;6127072;23;20852;-93
2023/08/26 14:53:06;;;;;;;1.10;1.00;;;25.00;90.20;;;;;;6126282;23;20444;-94
2023/08/26 14:55:33;;;;;;;2.23;1.00;;;25.00;90.20;;;;;;6127264;23;20412;-94
2023/08/26 14:58:00;;;;;;;1.30;1.10;;;25.00;90.20;;;;;;6126257;23;20475;-95
2023/08/26 15:00:27;;;;;;;1.73;1.17;;;25.00;90.20;;;;;;6126737;23;20467;-94
2023/08/26 15:02:53;;;;;;;2.20;1.00;;;25.00;90.20;;;;;;6126277;23;20436;-93
2023/08/26 15:05:23;;;;;;;1.20;0.93;;;25.00;90.10;;;;;;6126261;23;20443;-93
2023/08/26 15:07:50;;;;;;;1.50;0.97;;;25.00;90.20;;;;;;6126791;23;20412;-95
2023/08/26 15:10:17;;;;;;;1.50;1.10;;;25.00;90.10;;;;;;6126705;23;20443;-93
2023/08/26 15:12:45;;;;;;;2.80;1.10;;;25.00;90.10;;;;;;6126625;23;20480;-94
2023/08/26 15:15:12;;;;;;;1.10;1.00;;;25.00;90.10;;;;;;6128395;23;20779;-94
2023/08/26 15:17:39;;;;;;;1.40;1.30;;;25.00;90.10;;;;;;6128280;23;20974;-94
2023/08/26 15:20:07;;;;;;;1.27;1.17;;;25.00;90.10;;;;;;6129556;23;20407;-93
2023/08/26 15:22:35;;;;;;;3.90;1.20;;;25.00;90.10;;;;;;6129448;23;20715;-94
2023/08/26 15:25:03;;;;;;;2.27;1.10;;;25.00;90.10;;;;;;6128253;23;20397;-93
2023/08/26 15:27:30;;;;;;;1.97;1.00;;;25.00;90.00;;;;;;6128003;23;20432;-94
2023/08/26 15:29:57;;;;;;;1.10;0.80;;;25.00;90.10;;;;;;6128252;23;20786;-94
2023/08/26 15:32:24;;;;;;;2.27;1.00;;;25.00;90.00;;;;;;6127901;23;20436;-93
2023/08/26 15:34:51;;;;;;;1.87;0.80;;;25.00;90.00;;;;;;6128528;23;20817;-94
2023/08/26 15:37:18;;;;;;;3.80;0.90;;;25.00;90.00;;;;;;6129329;23;20455;-95
2023/08/26 15:39:46;;;;;;;1.30;1.07;;;25.00;90.00;;;;;;6128199;23;20408;-95
2023/08/26 15:42:13;;;;;;;1.23;1.10;;;25.00;90.00;;;;;;6128923;23;20459;-93
2023/08/26 15:44:40;;;;;;;1.70;1.00;;;25.00;90.00;;;;;;6127823;23;20436;-94
2023/08/26 15:47:07;;;;;;;1.57;1.00;;;25.00;90.00;;;;;;6127752;23;20451;-94
2023/08/26 15:49:34;;;;;;;1.30;1.10;;;25.00;90.00;;;;;;6128025;23;20401;-94
2023/08/26 15:52:09;;;;;;;1.10;0.93;;;25.00;90.00;;;;;;6127929;23;20436;-93
2023/08/26 15:54:36;;;;;;;1.80;0.90;;;25.00;90.00;;;;;;6127962;23;20392;-94
2023/08/26 15:57:05;;;;;;;2.47;1.03;;;25.00;90.00;;;;;;6102069;23;20487;-94
2023/08/26 15:59:32;;;;;;;1.40;1.00;;;25.00;90.00;;;;;;6128056;23;20500;-95
2023/08/26 16:01:59;;;;;;;2.17;0.90;;;25.00;90.00;;;;;;6128132;23;20405;-95
2023/08/26 16:04:26;;;;;;;1.97;0.90;;;25.00;90.00;;;;;;6127674;23;20413;-95
2023/08/26 16:06:54;;;;;;;1.60;0.80;;;25.00;89.90;;;;;;6128161;23;20433;-95
2023/08/26 16:09:21;;;;;;;1.40;1.23;;;25.00;90.00;;;;;;6127700;23;20913;-95
2023/08/26 16:11:48;;;;;;;1.13;1.00;;;25.00;89.90;;;;;;6128132;23;20445;-96
2023/08/26 16:14:16;;;;;;;1.70;1.10;;;25.00;89.90;;;;;;6127554;23;20484;-95
2023/08/26 16:16:43;;;;;;;1.83;1.00;;;25.00;89.90;;;;;;6127437;23;20979;-94
2023/08/26 16:19:10;;;;;;;1.30;0.83;;;25.00;89.90;;;;;;6127720;23;20437;-94
2023/08/26 16:21:38;;;;;;;1.30;1.00;;;25.00;89.90;;;;;;6127764;23;20932;-95
2023/08/26 16:24:06;;;;;;;1.53;1.07;;;25.00;89.90;;;;;;6127808;23;20420;-94
2023/08/26 16:26:33;;;;;;;1.63;0.90;;;25.00;89.90;;;;;;6128265;23;20393;-95
2023/08/26 16:28:59;;;;;;;2.47;0.90;;;25.00;90.30;;;;;;6127460;23;20487;-94
2023/08/26 16:31:28;;;;;;;1.10;0.80;;;25.00;89.90;;;;;;6128118;23;20464;-94
2023/08/26 16:33:55;;;;;;;1.70;1.13;;;25.00;89.80;;;;;;6127834;23;20479;-95
2023/08/26 16:36:22;;;;;;;1.33;1.13;;;25.00;89.90;;;;;;6127859;23;20440;-94
2023/08/26 16:38:48;;;;;;;1.17;0.93;;;25.00;89.90;;;;;;6127392;23;20404;-94
2023/08/26 16:41:15;;;;;;;1.37;0.93;;;25.00;89.90;;;;;;6127738;23;20734;-94
2023/08/26 16:43:42;;;;;;;1.57;1.07;;;25.00;90.00;;;;;;6128300;23;20405;-94
2023/08/26 16:46:09;;;;;;;1.10;0.90;;;25.00;89.90;;;;;;6127363;23;20460;-95
2023/08/26 16:48:38;;;;;;;1.13;0.90;;;25.00;89.90;;;;;;6127667;23;20499;-95
2023/08/26 16:51:05;;;;;;;1.40;1.10;;;25.00;89.90;;;;;;6127154;23;20433;-94
2023/08/26 16:53:31;;;;;;;1.30;1.00;;;25.00;89.90;;;;;;6127742;23;20736;-95
2023/08/26 16:55:58;;;;;;;1.20;1.00;;;25.00;89.90;;;;;;6127522;23;20435;-94
2023/08/26 16:58:25;;;;;;;1.10;0.90;;;25.00;90.00;;;;;;6127148;23;20927;-95
2023/08/26 17:00:52;;;;;;;1.50;1.00;;;25.00;89.90;;;;;;6127318;23;20412;-95
2023/08/26 17:03:20;;;;;;;1.10;0.90;;;25.00;90.30;;;;;;6127293;23;20412;-94
2023/08/26 17:05:51;;;;;;;1.40;1.10;;;25.00;89.80;;;;;;6127689;23;20432;-96
2023/08/26 17:08:18;;;;;;;1.70;1.10;;;25.00;89.80;;;;;;6127672;23;20417;-94
2023/08/26 17:10:45;;;;;;;1.10;0.90;;;25.00;89.80;;;;;;6127521;23;20409;-95
2023/08/26 17:13:12;;;;;;;1.30;0.90;;;25.00;89.80;;;;;;6126850;23;20453;-95
2023/08/26 17:15:39;;;;;;;1.10;0.93;;;25.00;89.80;;;;;;6127147;23;20499;-94
2023/08/26 17:18:06;;;;;;;1.27;1.03;;;25.00;89.80;;;;;;6127414;23;20722;-95
2023/08/26 17:20:33;;;;;;;1.20;0.97;;;25.00;89.80;;;;;;6127443;23;20773;-94
2023/08/26 17:23:01;;;;;;;1.30;1.10;;;25.00;89.80;;;;;;6126981;23;20412;-95
2023/08/26 17:25:28;;;;;;;1.10;0.90;;;25.00;89.80;;;;;;6127329;23;20431;-96
2023/08/26 17:27:55;;;;;;;1.10;1.00;;;25.00;89.70;;;;;;6127142;23;20492;-95
2023/08/26 17:30:22;;;;;;;1.40;0.90;;;25.00;90.30;;;;;;6126994;23;20414;-94
2023/08/26 17:32:49;;;;;;;1.07;0.77;;;25.00;89.90;;;;;;6127733;23;20768;-95
2023/08/26 17:35:16;;;;;;;1.10;0.90;;;25.00;89.80;;;;;;6126934;23;20440;-95
2023/08/26 17:37:43;;;;;;;1.07;0.80;;;25.00;89.70;;;;;;6127777;23;20440;-95
2023/08/26 17:40:11;;;;;;;1.00;0.80;;;25.00;89.80;;;;;;6127358;23;20436;-94
2023/08/26 17:42:42;;;;;;;1.20;1.00;;;25.00;89.90;;;;;;6126997;23;20415;-95
2023/08/26 17:45:10;;;;;;;1.63;1.00;;;25.00;89.80;;;;;;6127545;23;20420;-93
2023/08/26 17:47:37;;;;;;;1.30;0.97;;;25.00;89.80;;;;;;6126954;23;20463;-94
2023/08/26 17:50:05;;;;;;;1.87;1.07;;;25.00;89.80;;;;;;6126431;23;20828;-94
2023/08/26 17:52:31;;;;;;;1.20;1.00;;;25.00;89.80;;;;;;6126714;23;20483;-94
2023/08/26 17:54:59;;;;;;;1.30;1.10;;;25.00;89.80;;;;;;6126844;23;20471;-95
2023/08/26 17:57:28;;;;;;;1.50;1.00;;;25.00;89.80;;;;;;6127167;23;20416;-95
2023/08/26 17:59:54;;;;;;;1.10;0.90;;;25.00;89.80;;;;;;6126552;23;20408;-95
2023/08/26 18:02:21;;;;;;;1.20;1.00;;;24.90;89.70;;;;;;6127254;23;20400;-95
2023/08/26 18:04:48;;;;;;;1.30;0.80;;;25.00;89.80;;;;;;6127248;23;20467;-95
2023/08/26 18:07:15;;;;;;;2.07;1.00;;;25.00;89.70;;;;;;6126639;23;20484;-95
2023/08/26 18:09:42;;;;;;;1.10;0.80;;;25.00;89.70;;;;;;6126954;23;20492;-95
2023/08/26 18:12:09;;;;;;;1.30;0.93;;;25.00;89.80;;;;;;6126585;23;20909;-95
2023/08/26 18:14:38;;;;;;;1.20;0.90;;;25.00;89.80;;;;;;6126492;23;20538;-95
2023/08/26 18:17:05;;;;;;;1.00;0.80;;;25.00;89.60;;;;;;6126732;23;20928;-95
2023/08/26 18:19:33;;;;;;;1.30;0.90;;;25.00;89.70;;;;;;6126978;23;20897;-95
2023/08/26 18:22:00;;;;;;;1.10;0.83;;;25.00;89.70;;;;;;6127210;23;20417;-94
2023/08/26 18:24:27;;;;;;;1.23;0.97;;;25.00;89.70;;;;;;6127517;23;20412;-95
2023/08/26 18:26:53;;;;;;;1.13;0.97;;;25.00;89.70;;;;;;6126916;23;20432;-95
2023/08/26 18:29:23;;;;;;;1.10;0.90;;;24.90;89.50;;;;;;6127241;23;20408;-96
2023/08/26 18:31:51;;;;;;;1.13;1.00;;;24.90;89.50;;;;;;6126549;23;20487;-95
2023/08/26 18:34:18;;;;;;;1.30;1.10;;;24.90;89.50;;;;;;6126394;23;20448;-95
2023/08/26 18:36:45;;;;;;;1.60;1.07;;;24.90;89.50;;;;;;6127086;23;20409;-95
2023/08/26 18:39:11;;;;;;;1.40;1.00;;;24.90;89.50;;;;;;6127499;23;20722;-95
2023/08/26 18:41:38;;;;;;;1.20;0.90;;;24.90;89.60;;;;;;6126812;23;20884;-95
2023/08/26 18:44:05;;;;;;;1.60;0.90;;;24.90;89.50;;;;;;6126449;23;20820;-95
2023/08/26 18:46:32;;;;;;;1.17;0.97;;;24.90;89.50;;;;;;6126846;23;20436;-95
2023/08/26 18:49:01;;;;;;;1.77;1.10;;;24.90;89.50;;;;;;6128107;23;20440;-96
2023/08/26 18:51:27;;;;;;;2.60;1.10;;;24.90;90.10;;;;;;6129831;23;20449;-96
2023/08/26 18:53:54;;;;;;;1.57;1.20;;;24.90;89.60;;;;;;6128488;23;20815;-94
2023/08/26 18:56:21;;;;;;;1.17;0.93;;;24.90;89.50;;;;;;6128410;23;20416;-95
2023/08/26 18:58:49;;;;;;;1.20;1.10;;;24.90;89.60;;;;;;6128897;23;20780;-95
2023/08/26 19:01:16;;;;;;;1.20;1.00;;;24.90;89.50;;;;;;6128681;23;20830;-94
2023/08/26 19:03:43;;;;;;;1.20;0.90;;;24.90;89.50;;;;;;6128945;23;20491;-94
2023/08/26 19:06:11;;;;;;;1.20;1.00;;;25.00;89.60;;;;;;6128228;23;20772;-94
2023/08/26 19:08:38;;;;;;;1.20;1.00;;;24.90;89.50;;;;;;6129201;23;20804;-95
2023/08/26 19:11:05;;;;;;;1.20;1.10;;;24.90;89.50;;;;;;6128273;23;20797;-94
2023/08/26 19:13:32;;;;;;;1.20;1.03;;;24.90;89.50;;;;;;6127979;23;20460;-94
2023/08/26 19:15:59;;;;;;;1.30;1.20;;;24.90;89.50;;;;;;6128288;23;20404;-95
2023/08/26 19:18:26;;;;;;;1.70;0.97;;;24.90;89.50;;;;;;6128249;23;20752;-95
2023/08/26 19:20:52;;;;;;;1.10;1.00;;;24.90;89.50;;;;;;6128598;23;20407;-94
2023/08/26 19:23:21;;;;;;;1.20;1.00;;;24.90;89.50;;;;;;6128407;23;20408;-94
2023/08/26 19:25:49;;;;;;;1.40;1.23;;;24.90;89.50;;;;;;6128212;23;20409;-95
2023/08/26 19:28:16;;;;;;;1.30;1.20;;;24.90;89.50;;;;;;6128250;23;20405;-95
2023/08/26 19:30:45;;;;;;;1.17;1.07;;;24.90;89.50;;;;;;6128178;23;20412;-95
2023/08/26 19:33:11;;;;;;;1.20;1.00;;;24.90;89.50;;;;;;6128404;23;20405;-94
2023/08/26 19:35:40;;;;;;;1.20;1.00;;;24.90;89.50;;;;;;6128130;23;20478;-94
2023/08/26 19:38:07;;;;;;;1.30;1.10;;;24.90;89.50;;;;;;6128727;23;20405;-94
2023/08/26 19:40:36;;;;;;;1.30;1.10;;;24.90;89.50;;;;;;6128433;23;20436;-94
2023/08/26 19:43:03;;;;;;;1.20;1.10;;;24.90;89.50;;;;;;6128515;23;20451;-94
2023/08/26 19:45:30;;;;;;;1.97;1.30;;;24.90;89.50;;;;;;6127902;23;20443;-94
2023/08/26 19:47:58;;;;;;;1.53;1.30;;;24.90;89.50;;;;;;6127885;23;20964;-94
2023/08/26 19:50:25;;;;;;;1.60;1.50;;;24.90;89.60;;;;;;6127922;23;20480;-94
2023/08/26 19:52:52;;;;;;;1.37;1.27;;;24.90;89.60;;;;;;6127823;23;20436;-94
2023/08/26 19:55:19;;;;;;;1.40;1.17;;;24.90;89.60;;;;;;6128730;23;20815;-94
2023/08/26 19:57:47;;;;;;;1.30;1.20;;;24.90;89.50;;;;;;6127876;23;20397;-95
2023/08/26 20:00:15;;;;;;;1.30;1.20;;;24.90;89.50;;;;;;6127763;23;20480;-94
2023/08/26 20:02:42;;;;;;;1.40;1.20;;;24.90;89.60;;;;;;6127807;23;20404;-94
2023/08/26 20:05:09;;;;;;;1.30;1.10;;;24.90;89.60;;;;;;6127919;23;20443;-93
2023/08/26 20:07:36;;;;;;;1.47;1.23;;;24.90;89.60;;;;;;6128314;23;20449;-94
2023/08/26 20:10:03;;;;;;;1.20;1.00;;;24.90;89.60;;;;;;6128404;23;20779;-94
2023/08/26 20:12:31;;;;;;;1.20;1.10;;;24.90;89.60;;;;;;6127811;23;20463;-94
2023/08/26 20:15:01;;;;;;;1.40;1.20;;;24.90;89.60;;;;;;6127908;23;20926;-94
2023/08/26 20:17:29;;;;;;;1.20;1.00;;;24.90;89.60;;;;;;6127520;23;20432;-95
2023/08/26 20:19:56;;;;;;;1.33;1.13;;;24.90;89.60;;;;;;6128080;23;20780;-94
2023/08/26 20:22:23;;;;;;;1.33;0.87;;;24.90;89.50;;;;;;6127850;23;20496;-94
2023/08/26 20:24:50;;;;;;;1.27;1.10;;;24.90;89.60;;;;;;6127930;23;20748;-94
2023/08/26 20:27:17;;;;;;;1.30;1.10;;;24.90;89.70;;;;;;6127958;23;20472;-94
2023/08/26 20:29:44;;;;;;;1.30;1.20;;;24.80;89.60;;;;;;6128015;23;20428;-93
2023/08/26 20:32:13;;;;;;;1.20;1.00;;;24.80;90.20;;;;;;6128531;23;20405;-95
2023/08/26 20:34:40;;;;;;;1.50;1.00;;;24.80;89.60;;;;;;6127761;23;20428;-94
2023/08/26 20:37:06;;;;;;;1.30;1.20;;;24.80;89.70;;;;;;6127562;23;20401;-94
2023/08/26 20:39:33;;;;;;;1.30;1.20;;;24.80;89.60;;;;;;6127523;23;20432;-94
2023/08/26 20:42:00;;;;;;;1.30;1.10;;;24.80;89.60;;;;;;6127423;23;20409;-93
2023/08/26 20:44:27;;;;;;;1.20;1.10;;;24.80;89.60;;;;;;6127817;23;20717;-94
2023/08/26 20:46:54;;;;;;;2.33;1.20;;;24.80;89.70;;;;;;6127566;23;20991;-94
2023/08/26 20:49:23;;;;;;;1.40;1.23;;;24.80;89.60;;;;;;6127706;23;20433;-95
2023/08/26 20:51:50;;;;;;;1.63;1.50;;;24.80;89.60;;;;;;6128521;23;20409;-94
2023/08/26 20:54:17;;;;;;;1.40;1.27;;;24.80;89.60;;;;;;6127319;23;20440;-94
2023/08/26 20:56:44;;;;;;;1.50;1.40;;;24.80;89.60;;;;;;6127395;23;20412;-94
2023/08/26 20:59:11;;;;;;;1.10;1.00;;;24.80;89.60;;;;;;6127492;23;20476;-94
2023/08/26 21:01:38;;;;;;;1.30;1.07;;;24.80;89.60;;;;;;6127362;23;20465;-93
2023/08/26 21:04:05;;;;;;;1.60;1.30;;;24.80;89.70;;;;;;6128113;23;20492;-94
2023/08/26 21:06:34;;;;;;;1.20;1.10;;;24.80;89.70;;;;;;6128103;23;20492;-94
2023/08/26 21:09:01;;;;;;;1.40;1.30;;;24.80;89.70;;;;;;6127266;23;20459;-94
2023/08/26 21:11:27;;;;;;;1.40;1.20;;;24.80;89.70;;;;;;6126889;23;20408;-94
2023/08/26 21:13:54;;;;;;;1.20;1.10;;;24.80;89.70;;;;;;6127135;23;20397;-93
2023/08/26 21:16:21;;;;;;;1.70;1.13;;;24.80;89.70;;;;;;6126820;23;20956;-94
2023/08/26 21:18:48;;;;;;;3.00;1.30;;;24.80;89.70;;;;;;6127933;23;20476;-94
2023/08/26 21:21:15;;;;;;;1.10;0.97;;;24.80;89.70;;;;;;6127221;23;20401;-94
2023/08/26 21:23:44;;;;;;;1.27;1.17;;;24.80;89.70;;;;;;6127085;23;20432;-94
2023/08/26 21:26:11;;;;;;;1.30;1.20;;;24.80;89.70;;;;;;6127013;23;20444;-95
2023/08/26 21:28:38;;;;;;;1.20;1.10;;;24.80;89.70;;;;;;6128311;23;20412;-94
2023/08/26 21:31:09;;;;;;;1.83;1.20;;;24.80;89.70;;;;;;6127238;23;20484;-94
2023/08/26 21:33:35;;;;;;;1.30;1.20;;;24.80;89.70;;;;;;6126842;23;20400;-94
2023/08/26 21:36:04;;;;;;;1.30;1.10;;;24.80;89.60;;;;;;6126953;23;20947;-94
2023/08/26 21:38:31;;;;;;;1.37;1.27;;;24.80;89.70;;;;;;6126812;23;20424;-94
2023/08/26 21:41:04;;;;;;;1.87;1.57;;;24.80;89.70;;;;;;6127344;23;20413;-94
2023/08/26 21:43:31;;;;;;;1.67;1.57;;;24.80;89.70;;;;;;6127450;23;20420;-94
2023/08/26 21:45:58;;;;;;;2.17;1.43;;;24.80;89.70;;;;;;6127484;23;20433;-93
2023/08/26 21:48:27;;;;;;;1.87;1.40;;;24.80;89.80;;;;;;6127168;23;20421;-94
2023/08/26 21:50:53;;;;;;;1.70;1.60;;;24.80;89.80;;;;;;6127085;23;20484;-94
2023/08/26 21:53:21;;;;;;;2.00;1.60;;;24.80;89.80;;;;;;6126826;23;20876;-93
2023/08/26 21:55:52;;;;;;;1.50;1.30;;;24.80;89.80;;;;;;6126783;23;20436;-93
2023/08/26 21:58:20;;;;;;;1.47;1.37;;;24.70;89.60;;;;;;6126688;23;20408;-93
2023/08/26 22:00:47;;;;;;;1.50;1.33;;;24.80;89.80;;;;;;6126972;23;20432;-93
2023/08/26 22:03:14;;;;;;;1.87;1.50;;;24.80;89.70;;;;;;6127034;23;20400;-93
2023/08/26 22:05:41;;;;;;;1.40;1.20;;;24.80;89.80;;;;;;6126746;23;20908;-93
2023/08/26 22:08:10;;;;;;;1.90;1.40;;;24.80;89.80;;;;;;6126559;23;20435;-93
2023/08/26 22:10:37;;;;;;;3.73;1.40;;;24.70;89.70;;;;;;6127036;23;20413;-93
2023/08/26 22:13:06;;;;;;;1.60;1.40;;;24.70;89.70;;;;;;6126683;23;20519;-94
2023/08/26 22:15:38;;;;;;;1.40;1.30;;;24.70;89.70;;;;;;6126644;23;20439;-93
2023/08/26 22:18:05;;;;;;;1.80;1.10;;;24.80;89.80;;;;;;6126578;23;20425;-93
2023/08/26 22:20:32;;;;;;;1.30;1.10;;;24.70;89.70;;;;;;6126919;23;20805;-94
2023/08/26 22:22:59;;;;;;;1.50;1.30;;;24.70;89.70;;;;;;6126919;23;20397;-94
2023/08/26 22:25:26;;;;;;;1.87;1.17;;;24.70;89.70;;;;;;6126983;23;20707;-93
2023/08/26 22:27:53;;;;;;;1.63;1.53;;;24.70;89.70;;;;;;6126557;23;20404;-93
2023/08/26 22:30:19;;;;;;;1.60;1.50;;;24.70;89.70;;;;;;6127031;23;20436;-93
2023/08/26 22:32:48;;;;;;;1.57;1.47;;;24.70;89.70;;;;;;6126841;23;20731;-93
2023/08/26 22:35:15;;;;;;;1.33;1.23;;;24.70;89.70;;;;;;6126513;23;20441;-93
2023/08/26 22:37:42;;;;;;;1.40;1.27;;;24.70;89.70;;;;;;6126782;23;20942;-93
2023/08/26 22:40:11;;;;;;;1.50;1.30;;;24.70;89.70;;;;;;6127027;23;20405;-93
2023/08/26 22:42:38;;;;;;;1.97;1.53;;;24.70;89.80;;;;;;6127286;23;20436;-93
2023/08/26 22:45:06;;;;;;;1.77;1.50;;;24.70;90.00;;;;;;6126891;23;20480;-93
2023/08/26 22:47:33;;;;;;;1.43;1.33;;;24.70;89.80;;;;;;6126797;23;20456;-93
2023/08/26 22:50:03;;;;;;;1.90;1.73;;;24.70;89.70;;;;;;6126399;23;20432;-93
2023/08/26 22:52:30;;;;;;;1.60;1.30;;;24.70;89.80;;;;;;6126949;23;20393;-93
2023/08/26 22:54:57;;;;;;;1.70;1.30;;;24.70;89.80;;;;;;6126733;23;20468;-93
2023/08/26 22:57:24;;;;;;;1.30;1.20;;;24.70;89.80;;;;;;6126500;23;20439;-93
2023/08/26 22:59:51;;;;;;;1.47;1.37;;;24.70;89.80;;;;;;6126522;23;20404;-93
2023/08/26 23:02:18;;;;;;;1.50;1.40;;;24.70;89.90;;;;;;6127031;23;20400;-94
2023/08/26 23:04:45;;;;;;;6.10;1.67;;;24.70;89.80;;;;;;6126822;23;20405;-93
2023/08/26 23:07:14;;;;;;;1.40;1.30;;;24.70;89.80;;;;;;6126492;23;20436;-93
2023/08/26 23:09:41;;;;;;;1.40;1.30;;;24.70;89.90;;;;;;6127037;23;20428;-93
2023/08/26 23:12:08;;;;;;;1.90;1.57;;;24.70;89.90;;;;;;6126198;23;20456;-93
2023/08/26 23:14:37;;;;;;;1.40;1.30;;;24.70;89.90;;;;;;6126629;23;20483;-93
2023/08/26 23:17:04;;;;;;;1.33;1.23;;;24.70;89.80;;;;;;6126269;23;20417;-93
2023/08/26 23:19:31;;;;;;;1.80;1.70;;;24.70;89.80;;;;;;6126360;23;20397;-93
2023/08/26 23:21:58;;;;;;;2.07;1.70;;;24.70;90.30;;;;;;6126364;23;20411;-93
2023/08/26 23:24:26;;;;;;;1.30;1.20;;;24.70;89.80;;;;;;6126397;23;20398;-93
2023/08/26 23:26:53;;;;;;;1.60;1.50;;;24.70;89.90;;;;;;6126226;23;20490;-93
2023/08/26 23:29:20;;;;;;;1.40;1.30;;;24.70;89.90;;;;;;6126733;23;20712;-93
2023/08/26 23:31:47;;;;;;;1.87;1.50;;;24.70;89.90;;;;;;6126286;23;20411;-93
2023/08/26 23:34:14;;;;;;;1.30;1.20;;;24.70;89.90;;;;;;6126408;23;20766;-93
2023/08/26 23:36:41;;;;;;;1.40;1.23;;;24.70;89.90;;;;;;6127884;23;20782;-93
2023/08/26 23:39:08;;;;;;;2.40;1.30;;;24.70;90.00;;;;;;6128323;23;20440;-94
2023/08/26 23:41:36;;;;;;;1.60;1.50;;;24.70;90.00;;;;;;6129227;23;20868;-93
2023/08/26 23:44:03;;;;;;;1.40;1.30;;;24.70;90.00;;;;;;6128236;23;20744;-93
2023/08/26 23:46:30;;;;;;;1.50;1.40;;;24.70;90.00;;;;;;6128179;23;20412;-93
2023/08/26 23:48:57;;;;;;;1.50;1.30;;;24.70;89.90;;;;;;6127943;23;20479;-94
2023/08/26 23:51:24;;;;;;;1.63;1.53;;;24.70;90.00;;;;;;6128087;23;20490;-92
2023/08/26 23:53:51;;;;;;;2.63;1.90;;;24.70;90.00;;;;;;6127812;23;20793;-90
2023/08/26 23:56:18;;;;;;;1.43;1.33;;;24.70;88.40;;;;;;6128166;23;20448;-94
2023/08/26 23:58:46;;;;;;;1.40;1.30;;;24.70;89.10;;;;;;6127578;23;20507;-94
